WetterOnline ( https://www.wetteronline.de )

Wetter aktuell Berlin

Aktuelles Wetter: Berlin-Tempelhof (49m)

6-stündlich | Neueste Meldungen
Ortszeit Temperatur Wetter
Mo, 15.04. 8:00 8.7° C wolkig
Mo, 15.04. 2:00 9.5° C bedeckt
So, 14.04. 20:00 13.5° C bewölkt
So, 14.04. 14:00 15.1° C bedeckt
So, 14.04. 8:00 15.7° C bewölkt
So, 14.04. 2:00 17.5° C bedeckt
Sa, 13.04. 20:00 20.0° C bewölkt
Sa, 13.04. 14:00 22.1° C leicht bewölkt
Ortszeit Temperatur Wetter
Mo, 15.04. 13:30 12.3° C bedeckt
Mo, 15.04. 13:20 12.3° C bedeckt
Mo, 15.04. 13:10 12.2° C bedeckt
Mo, 15.04. 13:00 12.1° C bedeckt
Mo, 15.04. 12:50 12.1° C bedeckt
Mo, 15.04. 12:40 12.1° C bedeckt
Mo, 15.04. 12:30 12.6° C bewölkt
Mo, 15.04. 12:00 12.7° C bewölkt
Mo, 15.04. 11:30 11.5° C bewölkt
Mo, 15.04. 11:00 11.0° C bedeckt
Mo, 15.04. 10:30 10.9° C bewölkt
Ortszeit Relative Feuchte Sichtweite
Mo, 15.04. 8:00 66% 50 km
Mo, 15.04. 2:00 62% 60 km
So, 14.04. 20:00 41% 60 km
So, 14.04. 14:00 41% >70 km
So, 14.04. 8:00 68% 55 km
So, 14.04. 2:00 61% 60 km
Sa, 13.04. 20:00 55% 65 km
Sa, 13.04. 14:00 48% >70 km
Ortszeit Relative Feuchte Sichtweite
Mo, 15.04. 13:30 58% 60 km
Mo, 15.04. 13:20 58% -
Mo, 15.04. 13:10 61% -
Mo, 15.04. 13:00 61% 60 km
Mo, 15.04. 12:50 61% -
Mo, 15.04. 12:40 60% -
Mo, 15.04. 12:30 58% >70 km
Mo, 15.04. 12:00 57% 45 km
Mo, 15.04. 11:30 63% 60 km
Mo, 15.04. 11:00 64% 50 km
Mo, 15.04. 10:30 67% 40 km
Ortszeit Niederschlagsmenge Niederschlagsart
Mo, 15.04. 8:00 0.1 l/m2 in 12 Std. Regen
Mo, 15.04. 2:00 0.0 l/m2 in 6 Std. -
So, 14.04. 20:00 0.0 l/m2 in 12 Std. -
So, 14.04. 14:00 0.0 l/m2 in 6 Std. -
So, 14.04. 8:00 0.0 l/m2 in 12 Std. -
So, 14.04. 2:00 0.0 l/m2 in 6 Std. -
Sa, 13.04. 20:00 0.0 l/m2 in 12 Std. -
Sa, 13.04. 14:00 0.0 l/m2 in 6 Std. -
Ortszeit Niederschlagsmenge Niederschlagsart
Mo, 15.04. 13:30 0.0 l/m2 in 30 Min -
Mo, 15.04. 13:20 keine Meldung -
Mo, 15.04. 13:10 keine Meldung -
Mo, 15.04. 13:00 0.0 l/m2 in 1 Std. -
Mo, 15.04. 12:50 keine Meldung -
Mo, 15.04. 12:40 keine Meldung -
Mo, 15.04. 12:30 0.0 l/m2 in 30 Min -
Mo, 15.04. 12:00 0.0 l/m2 in 1 Std. -
Mo, 15.04. 11:30 0.0 l/m2 in 30 Min -
Mo, 15.04. 11:00 0.0 l/m2 in 1 Std. -
Mo, 15.04. 10:30 0.0 l/m2 in 30 Min -
Ortszeit Stärke Spitze Richtung
km/h Bft. km/h Grad Sektor
Mo, 15.04. 8:00 7 2 18 340° N
Mo, 15.04. 2:00 7 2 29 260° W
So, 14.04. 20:00 22 4 46 300° NW
So, 14.04. 14:00 29 5 54 280° W
So, 14.04. 8:00 25 4 43 290° W
So, 14.04. 2:00 14 3 22 220° SW
Sa, 13.04. 20:00 7 2 39 240° SW
Sa, 13.04. 14:00 20 4 43 260° W
Ortszeit Stärke Spitze Richtung
km/h Bft. km/h Grad Sektor
Mo, 15.04. 13:30 24 4 33 210° SW
Mo, 15.04. 13:20 24 4 - 210° SW
Mo, 15.04. 13:10 14 3 - 200° S
Mo, 15.04. 13:00 13 3 28 180° S
Mo, 15.04. 12:50 13 3 - 180° S
Mo, 15.04. 12:40 15 3 - 180° S
Mo, 15.04. 12:30 11 2 22 230° SW
Mo, 15.04. 12:00 11 2 22 220° SW
Mo, 15.04. 11:30 11 2 22 220° SW
Mo, 15.04. 11:00 13 3 22 200° S
Mo, 15.04. 10:30 11 2 18 220° SW
Ortszeit Untergrenze Bedeckung Gattung
total tief tief mittel hoch
Mo, 15.04. 8:00 1260 m 8/8 2/8 - - -
Mo, 15.04. 2:00 3000 m 8/8 8/8 - - -
So, 14.04. 20:00 6900 m 8/8 7/8 - - -
So, 14.04. 14:00 4200 m 8/8 8/8 - - -
So, 14.04. 8:00 1500 m 8/8 7/8 - - -
So, 14.04. 2:00 6600 m 8/8 8/8 - - -
Sa, 13.04. 20:00 6900 m 7/8 7/8 - - -
Sa, 13.04. 14:00 1410 m 5/8 2/8 - - -
Ortszeit Bedeckungsgrad in Achtel und Wolkenuntergrenze
Mo, 15.04. 13:30 4(990m) 7(1800m) 8(2700m)
Mo, 15.04. 13:20 4(990m) 7(1800m) 8(2700m)
Mo, 15.04. 13:10 8
Mo, 15.04. 13:00 5(1020m) 7(1500m) 8(1800m)
Mo, 15.04. 12:50 5(1020m) 7(1500m) 8(1800m)
Mo, 15.04. 12:40 8
Mo, 15.04. 12:30 5(1080m) 7(1500m) 7(2100m)
Mo, 15.04. 12:00 4(900m) 6(2700m) 7(8700m)
Mo, 15.04. 11:30 2(840m) 7(2700m) 7(9000m)
Mo, 15.04. 11:00 3(720m) 4(870m) 8(2700m)
Mo, 15.04. 10:30 6(750m) 7(2700m)
Ortszeit Luftdruck NN (hPa) Tendenz (hPa in 3 Std.)
Mo, 15.04. 8:00 1012 - 1,2
Mo, 15.04. 2:00 1015 - 1,4
So, 14.04. 20:00 1017 - 0,2
So, 14.04. 14:00 1019 + 0,9
So, 14.04. 8:00 1016 + 1,7
So, 14.04. 2:00 1015 - 2,1
Sa, 13.04. 20:00 1019 - 2,1
Sa, 13.04. 14:00 1023 - 1,6
Ortszeit Luftdruck NN (hPa) Tendenz (hPa in 3 Std.)
Mo, 15.04. 13:30 1008 - 2,8
Mo, 15.04. 13:20 1008 keine Meldung
Mo, 15.04. 13:10 1008 keine Meldung
Mo, 15.04. 13:00 1008 - 2,6
Mo, 15.04. 12:50 1008 keine Meldung
Mo, 15.04. 12:40 1008 keine Meldung
Mo, 15.04. 12:30 1009 - 2,6
Mo, 15.04. 12:00 1009 - 2,4
Mo, 15.04. 11:30 1010 - 2,0
Mo, 15.04. 11:00 1010 - 1,9
Mo, 15.04. 10:30 1011 - 1,9
Ortszeit Schneehöhe (cm)
Mo, 15.04. 8:00 0
Mo, 15.04. 2:00 0
So, 14.04. 20:00 0
So, 14.04. 14:00 0
So, 14.04. 8:00 0
So, 14.04. 2:00 0
Sa, 13.04. 20:00 0
Sa, 13.04. 14:00 0
Ortszeit Schneehöhe (cm)
Mo, 15.04. 13:30 0
Mo, 15.04. 13:20 0
Mo, 15.04. 13:10 -
Mo, 15.04. 13:00 0
Mo, 15.04. 12:50 0
Mo, 15.04. 12:40 -
Mo, 15.04. 12:30 0
Mo, 15.04. 12:00 0
Mo, 15.04. 11:30 0
Mo, 15.04. 11:00 0
Mo, 15.04. 10:30 0
Link zu dieser Seite / Seite empfehlen

Das Wetter in ...